Dodson, Oregon
Current Conditions -  °F | °C
As of 3:39 PM on Tuesday 25 Nov 2014 (Local Time) from K4S2 Reporting Station
Overcast Overcast  
Wind Chill: 16°   Ceiling: 3900
Heat Index: 16°   Visibility: 10mi
Dew Point: 11°   Wind: 0mph
Humidity: 72%   Direction: NA
Pressure: 30.23"   Gusts: NA
Location:  45.6281°N, 121.806°W
Report Text: K4S2 252339Z AUTO 00000KT 10SM SCT033 OVC039 16/11 A3023 RMK AO2 SLP252 T01600110
Loading
Personal Weather Stations






























Interactive Weather Map New forecast layout! Learn more

10-Day Weather Forecast

Advertisements
Track Severe Weather on mobile